Time;durP1;ratioP1;P1;durP2;ratioP2;P2;SDS_P1;SDS_P2;PMS_P1;PMS_P2;Temp;Humidity;BMP_temperature;BMP_pressure;BME280_temperature;BME280_humidity;BME280_pressure;Samples;Min_cycle;Max_cycle;Signal;HPM_P1;HPM_P2
2022/05/19 00:01:01;;;;;;;;;;;20.90;1.00;;;;;;10237893;22;86237;-53
2022/05/19 00:06:03;;;;;;;;;;;20.70;1.00;;;;;;10204404;28;84782;-50
2022/05/19 00:11:05;;;;;;;;;;;20.70;1.00;;;;;;10205080;28;84460;-49
2022/05/19 00:16:06;;;;;;;;;;;20.70;1.00;;;;;;10186393;28;86877;-49
2022/05/19 00:21:07;;;;;;;;;;;20.60;1.00;;;;;;10186181;28;85819;-50
2022/05/19 00:26:07;;;;;;;;;;;20.60;1.00;;;;;;10205025;28;84930;-49
2022/05/19 00:31:08;;;;;;;;;;;20.60;1.00;;;;;;10202672;28;84174;-50
2022/05/19 00:36:14;;;;;;;;;;;20.50;1.00;;;;;;10206734;28;84166;-52
2022/05/19 00:41:15;;;;;;;;;;;20.50;1.00;;;;;;10223795;28;84863;-51
2022/05/19 00:46:20;;;;;;;;;;;20.40;1.00;;;;;;10250523;28;84084;-50
2022/05/19 00:51:24;;;;;;;;;;;20.30;1.00;;;;;;10249428;28;84095;-53
2022/05/19 00:56:34;;;;;;;;;;;20.20;1.00;;;;;;10228188;28;84144;-52
2022/05/19 01:01:35;;;;;;;;;;;20.20;1.00;;;;;;10192137;28;85008;-46
2022/05/19 01:06:38;;;;;;;;;;;20.20;1.00;;;;;;10208900;28;84522;-49
2022/05/19 01:11:38;;;;;;;;;;;20.10;1.00;;;;;;10209604;28;85214;-49
2022/05/19 01:16:39;;;;;;;;;;;20.00;1.00;;;;;;10210323;28;84994;-47
2022/05/19 01:21:40;;;;;;;;;;;20.00;1.00;;;;;;10209463;28;84826;-52
2022/05/19 01:26:48;;;;;;;;;;;19.90;1.00;;;;;;10209300;28;84093;-48
2022/05/19 01:31:58;;;;;;;;;;;19.90;1.00;;;;;;10208151;28;84196;-51
2022/05/19 01:36:59;;;;;;;;;;;19.80;1.00;;;;;;10222560;28;84936;-49
2022/05/19 01:42:16;;;;;;;;;;;19.70;1.00;;;;;;10229119;28;86799;-49
2022/05/19 01:47:29;;;;;;;;;;;19.70;1.00;;;;;;10243215;28;86574;-49
2022/05/19 01:52:36;;;;;;;;;;;19.70;1.00;;;;;;10246340;28;84366;-53
2022/05/19 01:57:44;;;;;;;;;;;19.70;1.00;;;;;;10246108;28;84776;-48
2022/05/19 02:02:59;;;;;;;;;;;19.60;1.00;;;;;;10213048;28;84160;-51
2022/05/19 02:08:01;;;;;;;;;;;19.60;1.00;;;;;;10188427;28;86026;-49
2022/05/19 02:13:03;;;;;;;;;;;19.60;1.00;;;;;;10205642;28;84699;-53
2022/05/19 02:18:03;;;;;;;;;;;19.60;1.00;;;;;;10189388;28;84195;-50
2022/05/19 02:23:04;;;;;;;;;;;19.60;1.00;;;;;;10205463;28;84680;-50
2022/05/19 02:28:08;;;;;;;;;;;19.60;1.00;;;;;;10204646;28;84124;-49
2022/05/19 02:33:11;;;;;;;;;;;19.50;1.00;;;;;;10199919;28;84741;-49
2022/05/19 02:38:13;;;;;;;;;;;19.50;1.00;;;;;;10179701;28;84906;-49
2022/05/19 02:43:14;;;;;;;;;;;19.40;1.00;;;;;;10204891;28;84768;-50
2022/05/19 02:48:15;;;;;;;;;;;19.20;1.00;;;;;;10204078;28;84272;-46
2022/05/19 02:53:16;;;;;;;;;;;19.20;1.00;;;;;;10240322;28;84768;-46
2022/05/19 02:58:17;;;;;;;;;;;19.10;1.00;;;;;;10243946;28;85006;-51
2022/05/19 03:03:18;;;;;;;;;;;19.00;1.00;;;;;;10244598;28;84663;-53
2022/05/19 03:08:18;;;;;;;;;;;18.90;1.00;;;;;;10216270;28;84580;-53
2022/05/19 03:13:21;;;;;;;;;;;18.90;1.00;;;;;;10180735;28;85098;-53
2022/05/19 03:18:21;;;;;;;;;;;18.80;1.00;;;;;;10190679;28;84929;-52
2022/05/19 03:23:22;;;;;;;;;;;18.70;1.00;;;;;;10195938;28;84026;-50
2022/05/19 03:28:22;;;;;;;;;;;18.70;1.00;;;;;;10242316;28;84990;-52
2022/05/19 03:33:23;;;;;;;;;;;18.60;1.00;;;;;;10243669;28;84132;-49
2022/05/19 03:38:24;;;;;;;;;;;18.70;1.00;;;;;;10227830;28;84908;-51
2022/05/19 03:43:24;;;;;;;;;;;18.70;1.00;;;;;;10203250;28;84969;-51
2022/05/19 03:48:26;;;;;;;;;;;18.70;1.00;;;;;;10202153;28;84131;-48
2022/05/19 03:53:26;;;;;;;;;;;18.70;1.00;;;;;;10224339;28;84134;-48
2022/05/19 03:58:27;;;;;;;;;;;18.70;1.00;;;;;;10241932;28;84911;-49
2022/05/19 04:03:27;;;;;;;;;;;18.70;1.00;;;;;;10243273;28;84292;-49
2022/05/19 04:08:28;;;;;;;;;;;18.70;1.00;;;;;;10213952;28;84140;-52
2022/05/19 04:13:29;;;;;;;;;;;18.70;1.00;;;;;;10209824;28;85260;-50
2022/05/19 04:18:29;;;;;;;;;;;18.70;1.00;;;;;;10191503;28;87139;-50
2022/05/19 04:23:30;;;;;;;;;;;18.60;1.00;;;;;;10208126;28;84034;-50
2022/05/19 04:28:31;;;;;;;;;;;18.60;1.00;;;;;;10209513;28;84753;-49
2022/05/19 04:33:32;;;;;;;;;;;18.60;1.00;;;;;;10211826;28;84144;-54
2022/05/19 04:38:33;;;;;;;;;;;18.70;1.00;;;;;;10209166;28;84790;-47
2022/05/19 04:43:33;;;;;;;;;;;18.70;1.00;;;;;;10195816;28;84990;-54
2022/05/19 04:48:35;;;;;;;;;;;18.70;1.00;;;;;;10198860;28;84303;-55
2022/05/19 04:53:35;;;;;;;;;;;18.80;1.00;;;;;;10206771;28;84876;-54
2022/05/19 04:58:36;;;;;;;;;;;18.80;1.00;;;;;;10199289;28;85185;-53
2022/05/19 05:03:36;;;;;;;;;;;19.00;1.00;;;;;;10219842;28;86310;-50
2022/05/19 05:08:37;;;;;;;;;;;19.20;1.00;;;;;;10223501;28;84991;-56
2022/05/19 05:13:38;;;;;;;;;;;19.40;1.00;;;;;;10224474;28;84198;-54
2022/05/19 05:18:38;;;;;;;;;;;19.40;1.00;;;;;;10187515;28;91051;-56
2022/05/19 05:23:39;;;;;;;;;;;19.70;1.00;;;;;;10206407;28;84864;-53
2022/05/19 05:28:40;;;;;;;;;;;19.90;1.00;;;;;;10206702;28;84953;-55
2022/05/19 05:33:40;;;;;;;;;;;20.10;1.00;;;;;;10207596;28;84830;-52
2022/05/19 05:38:41;;;;;;;;;;;20.20;1.00;;;;;;10207670;28;84255;-50
2022/05/19 05:43:41;;;;;;;;;;;20.30;1.00;;;;;;10207371;28;84004;-55
2022/05/19 05:48:43;;;;;;;;;;;20.50;1.00;;;;;;10204048;28;84019;-55
2022/05/19 05:53:44;;;;;;;;;;;20.70;1.00;;;;;;10201067;28;85050;-56
2022/05/19 05:58:45;;;;;;;;;;;20.90;1.00;;;;;;10195862;22;87009;-53
2022/05/19 06:03:48;;;;;;;;;;;21.10;1.00;;;;;;10264961;28;84754;-52
2022/05/19 06:08:48;;;;;;;;;;;21.20;1.00;;;;;;10261376;28;84160;-51
2022/05/19 06:13:50;;;;;;;;;;;21.50;1.00;;;;;;10245531;28;84963;-51
2022/05/19 06:18:50;;;;;;;;;;;21.70;1.00;;;;;;10244778;28;84288;-52
2022/05/19 06:23:51;;;;;;;;;;;21.90;99.90;;;;;;10242880;28;85054;-51
2022/05/19 06:28:52;;;;;;;;;;;22.20;99.90;;;;;;10245018;28;84715;-53
2022/05/19 06:33:53;;;;;;;;;;;22.30;99.90;;;;;;10245961;28;84830;-51
2022/05/19 06:38:53;;;;;;;;;;;22.60;99.90;;;;;;10244335;28;84840;-54
2022/05/19 06:43:54;;;;;;;;;;;22.80;99.90;;;;;;10246835;28;84270;-53
2022/05/19 06:48:54;;;;;;;;;;;22.90;99.90;;;;;;10247304;28;84218;-54
2022/05/19 06:53:55;;;;;;;;;;;23.10;99.90;;;;;;10233825;28;84901;-53
2022/05/19 06:58:56;;;;;;;;;;;23.40;66.40;;;;;;10234730;28;85020;-53
2022/05/19 07:03:56;;;;;;;;;;;23.90;1.00;;;;;;10245177;28;85148;-52
2022/05/19 07:08:57;;;;;;;;;;;24.20;1.00;;;;;;10246709;28;84835;-54
2022/05/19 07:13:59;;;;;;;;;;;24.30;99.90;;;;;;10246474;28;84713;-52
2022/05/19 07:24:38;;;;;;;;;;;25.30;1.00;;;;;;10121171;28;84050;-53
2022/05/19 07:29:39;;;;;;;;;;;25.60;1.00;;;;;;10215980;28;84099;-53
2022/05/19 07:34:40;;;;;;;;;;;25.40;1.00;;;;;;10246151;28;84783;-51
2022/05/19 07:39:40;;;;;;;;;;;25.50;1.00;;;;;;10245237;28;84253;-53
2022/05/19 07:44:41;;;;;;;;;;;25.90;1.00;;;;;;10248662;28;84067;-54
2022/05/19 07:49:41;;;;;;;;;;;26.00;1.00;;;;;;10250971;28;84234;-52
2022/05/19 07:54:42;;;;;;;;;;;26.10;1.00;;;;;;10253473;28;84577;-52
2022/05/19 07:59:45;;;;;;;;;;;25.90;99.90;;;;;;10252103;28;84936;-51
2022/05/19 08:04:45;;;;;;;;;;;25.90;99.90;;;;;;10250763;28;84086;-54
2022/05/19 08:20:28;;;;;;;;;;;26.00;99.90;;;;;;10252123;28;84796;-52
2022/05/19 08:25:28;;;;;;;;;;;26.20;43.50;;;;;;10251156;28;86747;-49
2022/05/19 08:30:29;;;;;;;;;;;26.20;99.90;;;;;;10250297;28;84935;-52
2022/05/19 08:35:30;;;;;;;;;;;26.30;99.90;;;;;;10252426;28;84286;-54
2022/05/19 08:40:33;;;;;;;;;;;26.20;1.00;;;;;;10251422;28;84910;-52
2022/05/19 08:45:42;;;;;;;;;;;26.60;1.00;;;;;;10251469;28;84362;-48
2022/05/19 08:50:44;;;;;;;;;;;26.80;99.90;;;;;;10250170;28;84083;-54
2022/05/19 08:55:52;;;;;;;;;;;26.70;99.90;;;;;;10249044;28;87108;-51
2022/05/19 09:00:54;;;;;;;;;;;26.90;1.00;;;;;;10249693;28;85073;-50
2022/05/19 09:06:09;;;;;;;;;;;26.90;1.00;;;;;;10247694;28;84995;-53
2022/05/19 09:11:12;;;;;;;;;;;26.80;1.00;;;;;;10249826;28;84926;-52
2022/05/19 09:16:15;;;;;;;;;;;27.20;99.90;;;;;;10249990;28;84207;-51
2022/05/19 09:21:15;;;;;;;;;;;27.20;99.90;;;;;;10252099;28;85035;-49
2022/05/19 09:26:35;;;;;;;;;;;27.00;99.90;;;;;;10255765;28;85445;-51
2022/05/19 09:31:37;;;;;;;;;;;27.10;1.00;;;;;;10259488;28;84150;-50
2022/05/19 09:36:42;;;;;;;;;;;27.50;99.90;;;;;;10256298;28;84018;-53
2022/05/19 09:41:48;;;;;;;;;;;27.60;99.90;;;;;;10252466;28;84742;-51
2022/05/19 09:46:50;;;;;;;;;;;27.80;99.90;;;;;;10250445;28;84037;-50
2022/05/19 09:51:51;;;;;;;;;;;27.40;1.00;;;;;;10249296;28;84145;-52
2022/05/19 09:56:53;;;;;;;;;;;27.30;99.90;;;;;;10248464;28;85146;-53
2022/05/19 10:02:29;;;;;;;;;;;27.50;99.90;;;;;;10248173;28;84406;-52
2022/05/19 10:07:35;;;;;;;;;;;28.30;1.00;;;;;;10172345;28;84460;-49
2022/05/19 10:12:42;;;;;;;;;;;29.00;1.00;;;;;;10248632;28;84225;-53
2022/05/19 10:17:52;;;;;;;;;;;29.30;1.00;;;;;;10247892;28;84912;-55
2022/05/19 10:23:01;;;;;;;;;;;30.00;99.90;;;;;;10248664;28;84963;-52
2022/05/19 10:34:20;;;;;;;;;;;30.40;1.00;;;;;;10574669;27;83723;-53
2022/05/19 10:39:41;;;;;;;;;;;30.70;99.90;;;;;;10574170;27;83021;-51
2022/05/19 10:45:09;;;;;;;;;;;31.60;1.00;;;;;;10560309;22;82953;-58
2022/05/19 10:50:12;;;;;;;;;;;31.90;1.00;;;;;;10502301;27;83196;-58
2022/05/19 10:55:14;;;;;;;;;;;32.80;1.00;;;;;;10527936;27;82912;-56
2022/05/19 11:00:17;;;;;;;;;;;34.10;1.00;;;;;;10525114;27;83551;-57
2022/05/19 11:05:18;;;;;;;;;;;34.70;99.90;;;;;;10525273;27;83008;-58
2022/05/19 11:10:37;;;;;;;;;;;34.30;99.90;;;;;;10526814;27;83028;-57
2022/05/19 11:15:47;;;;;;;;;;;34.70;1.00;;;;;;10527253;27;83083;-56
2022/05/19 11:21:03;;;;;;;3.40;2.30;;;35.70;1.00;;;;;;10526985;27;82938;-57
2022/05/19 11:26:24;;;;;;;3.20;2.60;;;36.00;1.00;;;;;;10526057;27;82878;-58
2022/05/19 11:31:32;;;;;;;;;;;35.50;1.00;;;;;;10526134;27;82888;-56
2022/05/19 11:36:48;;;;;;;2.50;2.30;;;36.60;1.00;;;;;;10526639;27;83040;-58
2022/05/19 11:41:52;;;;;;;2.55;2.35;;;36.80;1.00;;;;;;10515497;27;85074;-56
2022/05/19 11:47:07;;;;;;;2.60;2.40;;;36.40;1.00;;;;;;10497308;27;82806;-57
2022/05/19 11:58:00;;;;;;;3.90;2.40;;;36.10;1.00;;;;;;10497108;27;82902;-56
2022/05/19 12:03:14;;;;;;;2.88;2.58;;;36.50;1.00;;;;;;10495844;27;83328;-57
2022/05/19 12:08:38;;;;;;;3.95;2.35;;;36.00;1.00;;;;;;10497193;27;83403;-56
2022/05/19 12:13:43;;;;;;;2.30;2.10;;;36.60;1.00;;;;;;10496389;27;83348;-56
2022/05/19 12:18:58;;;;;;;2.30;2.10;;;34.90;1.00;;;;;;10496549;27;82868;-55
2022/05/19 12:24:06;;;;;;;2.97;2.42;;;33.20;1.00;;;;;;10496631;27;83043;-57
2022/05/19 12:29:23;;;;;;;3.23;2.60;;;34.10;1.00;;;;;;10497080;27;83218;-57
2022/05/19 12:34:32;;;;;;;4.22;2.67;;;35.50;1.00;;;;;;10496040;27;83534;-58
2022/05/19 12:39:49;;;;;;;3.33;2.30;;;36.40;1.00;;;;;;10495199;27;82807;-55
2022/05/19 12:44:55;;;;;;;2.55;2.35;;;36.40;1.00;;;;;;10494931;27;83109;-53
2022/05/19 12:50:02;;;;;;;3.22;2.20;;;35.10;1.00;;;;;;10494672;27;83148;-57
2022/05/19 12:55:32;;;;;;;2.72;2.10;;;34.30;1.00;;;;;;10493702;27;82910;-52
2022/05/19 13:00:38;;;;;;;2.58;2.00;;;33.50;1.00;;;;;;10492820;27;82898;-58
2022/05/19 13:06:00;;;;;;;2.38;2.17;;;33.40;1.00;;;;;;10492389;27;83390;-55
2022/05/19 13:11:07;;;;;;;2.75;2.30;;;33.30;1.00;;;;;;10493972;27;83513;-53
2022/05/19 13:16:14;;;;;;;3.38;2.08;;;32.40;1.00;;;;;;10494520;27;83323;-56
2022/05/19 13:21:25;;;;;;;2.20;2.00;;;32.10;1.00;;;;;;10493443;27;82901;-56
2022/05/19 13:26:27;;;;;;;;;;;31.40;1.00;;;;;;10494035;27;82902;-56
2022/05/19 13:31:28;;;;;;;;;;;30.80;1.00;;;;;;10493608;27;83330;-55
2022/05/19 13:36:35;;;;;;;;;;;30.40;1.00;;;;;;10493923;27;82928;-56
2022/05/19 13:41:43;;;;;;;;;;;30.00;1.00;;;;;;10493250;27;84201;-52
2022/05/19 13:46:44;;;;;;;;;;;30.00;1.00;;;;;;10493434;27;83020;-55
2022/05/19 13:51:46;;;;;;;;;;;26.70;1.00;;;;;;10494949;27;83209;-52
2022/05/19 13:56:48;;;;;;;;;;;23.40;1.00;;;;;;10493844;27;83148;-50
2022/05/19 14:01:53;;;;;;;;;;;21.40;1.00;;;;;;10493063;27;83725;-52
2022/05/19 14:06:56;;;;;;;;;;;20.10;99.90;;;;;;10492442;27;83113;-55
2022/05/19 14:12:21;;;;;;;3.38;1.00;;;19.20;99.90;;;;;;10493292;27;83308;-55
2022/05/19 14:17:24;;;;;;;2.03;0.80;;;19.00;99.90;;;;;;10494061;27;83010;-54
2022/05/19 14:22:25;;;;;;;2.05;0.93;;;18.80;99.90;;;;;;10493392;27;83227;-54
2022/05/19 14:27:26;;;;;;;1.58;0.77;;;18.80;99.90;;;;;;10492672;27;83410;-55
2022/05/19 14:32:42;;;;;;;3.55;0.82;;;18.80;99.90;;;;;;10490659;27;84709;-55
2022/05/19 14:37:52;;;;;;;1.50;0.80;;;18.90;99.90;;;;;;10492843;27;82788;-54
2022/05/19 14:43:04;;;;;;;1.20;0.90;;;19.00;99.90;;;;;;10493214;27;83629;-55
2022/05/19 14:48:23;;;;;;;1.48;0.80;;;19.00;99.90;;;;;;10493570;27;82806;-55
2022/05/19 14:53:25;;;;;;;1.73;0.63;;;19.10;99.90;;;;;;10491416;27;85387;-53
2022/05/19 14:58:38;;;;;;;4.05;0.73;;;19.10;99.90;;;;;;10509064;27;83444;-54
2022/05/19 15:03:39;;;;;;;1.17;0.85;;;19.10;99.90;;;;;;10490162;27;84574;-55
2022/05/19 15:08:40;;;;;;;2.10;0.95;;;19.10;99.90;;;;;;10492538;27;83644;-51
2022/05/19 15:13:41;;;;;;;0.70;0.60;;;19.10;99.90;;;;;;10489541;27;84232;-50
2022/05/19 15:18:43;;;;;;;1.38;0.80;;;19.10;99.90;;;;;;10494227;27;84399;-51
2022/05/19 15:23:44;;;;;;;1.10;0.80;;;19.10;99.90;;;;;;10514159;27;83254;-50
2022/05/19 15:28:45;;;;;;;1.23;0.68;;;19.20;99.90;;;;;;10497966;27;83732;-52
2022/05/19 15:33:45;;;;;;;0.80;0.70;;;19.20;99.90;;;;;;10496455;27;82744;-54
2022/05/19 15:38:46;;;;;;;1.80;0.90;;;19.30;99.90;;;;;;10496405;27;83219;-55
2022/05/19 15:43:46;;;;;;;1.88;0.82;;;19.30;99.90;;;;;;10494162;27;82958;-52
2022/05/19 15:48:49;;;;;;;1.77;0.85;;;19.20;99.90;;;;;;10496574;27;83031;-56
2022/05/19 15:53:50;;;;;;;1.92;0.98;;;19.30;99.90;;;;;;10494537;27;82948;-53
2022/05/19 15:58:50;;;;;;;3.33;0.80;;;19.20;99.90;;;;;;10497329;27;82906;-55
2022/05/19 16:03:51;;;;;;;1.75;0.90;;;19.10;99.90;;;;;;10495138;27;83340;-55
2022/05/19 16:08:52;;;;;;;1.00;0.93;;;19.00;99.90;;;;;;10497069;27;83063;-52
2022/05/19 16:13:53;;;;;;;3.22;0.80;;;18.90;99.90;;;;;;10497004;27;82933;-52
2022/05/19 16:18:55;;;;;;;2.45;1.00;;;18.90;99.90;;;;;;10496402;27;83403;-51
2022/05/19 16:23:56;;;;;;;2.00;0.90;;;19.00;99.90;;;;;;10496504;27;83432;-53
2022/05/19 16:28:57;;;;;;;2.45;1.20;;;18.80;99.90;;;;;;10496834;27;83463;-51
2022/05/19 16:33:58;;;;;;;1.55;1.10;;;18.80;99.90;;;;;;10495884;27;83095;-53
2022/05/19 16:38:59;;;;;;;1.33;1.10;;;18.70;99.90;;;;;;10495717;27;84987;-55
2022/05/19 16:44:00;;;;;;;1.85;1.10;;;18.60;99.90;;;;;;10495985;27;84692;-52
2022/05/19 16:49:01;;;;;;;1.60;1.23;;;18.60;99.90;;;;;;10495908;27;83740;-54
2022/05/19 16:59:22;;;;;;;3.38;1.40;;;18.70;99.90;;;;;;10495548;27;83688;-52
2022/05/19 17:04:22;;;;;;;2.38;1.30;;;18.80;99.90;;;;;;10495183;27;83209;-51
2022/05/19 17:09:23;;;;;;;2.35;1.10;;;18.80;99.90;;;;;;10495180;27;86619;-54
2022/05/19 17:14:24;;;;;;;3.92;1.30;;;18.80;99.90;;;;;;10494967;27;82844;-53
2022/05/19 17:19:25;;;;;;;2.92;1.48;;;18.90;99.90;;;;;;10495305;27;83323;-53
2022/05/19 17:24:26;;;;;;;3.38;1.40;;;19.00;99.90;;;;;;10493617;27;83011;-51
2022/05/19 17:29:26;;;;;;;3.85;1.52;;;19.10;99.90;;;;;;10493480;27;83271;-52
2022/05/19 17:34:27;;;;;;;3.17;1.42;;;19.20;99.90;;;;;;10492899;27;85593;-49
2022/05/19 17:39:29;;;;;;;3.65;1.50;;;19.30;99.90;;;;;;10493583;27;84175;-55
2022/05/19 17:44:31;;;;;;;2.63;1.70;;;19.30;99.90;;;;;;10493168;27;83070;-57
2022/05/19 17:49:32;;;;;;;3.72;1.58;;;19.30;99.90;;;;;;10492520;27;84296;-54
2022/05/19 17:54:34;;;;;;;1.30;1.20;;;19.50;99.90;;;;;;10493563;27;82902;-52
2022/05/19 17:59:35;;;;;;;5.18;1.73;;;19.60;99.90;;;;;;10491822;27;82865;-52
2022/05/19 18:04:36;;;;;;;2.15;1.70;;;19.70;99.90;;;;;;10491983;27;83691;-50
2022/05/19 18:09:37;;;;;;;4.07;1.50;;;19.70;99.90;;;;;;10492314;27;83564;-53
2022/05/19 18:19:58;;;;;;;3.15;2.10;;;19.90;99.90;;;;;;10492511;27;83415;-49
2022/05/19 18:24:59;;;;;;;5.18;3.28;;;19.80;99.90;;;;;;10492722;27;83846;-53
2022/05/19 18:30:02;;;;;;;4.57;2.50;;;19.80;99.90;;;;;;10489922;27;82952;-56
2022/05/19 18:35:03;;;;;;;2.45;2.17;;;19.80;99.90;;;;;;10492535;27;83177;-58
2022/05/19 18:40:04;;;;;;;2.83;2.28;;;19.80;99.90;;;;;;10489709;27;85493;-54
2022/05/19 18:45:06;;;;;;;5.10;2.50;;;19.70;99.90;;;;;;10490593;27;83615;-52
2022/05/19 18:50:08;;;;;;;5.38;2.53;;;19.80;99.90;;;;;;10491878;27;82930;-53
2022/05/19 18:55:10;;;;;;;2.88;2.15;;;19.80;99.90;;;;;;10499235;27;82961;-52
2022/05/19 19:00:11;;;;;;;3.92;2.38;;;19.80;99.90;;;;;;10498831;27;83716;-53
2022/05/19 19:05:12;;;;;;;5.05;2.60;;;19.80;99.90;;;;;;10499805;27;84133;-52
2022/05/19 19:10:14;;;;;;;4.30;2.28;;;19.70;99.90;;;;;;10499399;27;83276;-51
2022/05/19 19:15:14;;;;;;;3.03;2.60;;;19.60;99.90;;;;;;10500695;27;84094;-54
2022/05/19 19:20:15;;;;;;;3.38;2.40;;;19.50;99.90;;;;;;10499269;27;84007;-55
2022/05/19 19:25:16;;;;;;;5.32;2.53;;;19.50;99.90;;;;;;10499880;27;83372;-52
2022/05/19 19:30:17;;;;;;;3.78;2.78;;;19.50;99.90;;;;;;10498337;27;84574;-54
2022/05/19 19:35:18;;;;;;;4.85;2.78;;;19.40;99.90;;;;;;10498518;27;83247;-49
2022/05/19 19:40:21;;;;;;;3.88;2.85;;;19.40;99.90;;;;;;10488653;27;86291;-51
2022/05/19 19:45:21;;;;;;;;;;;19.40;99.90;;;;;;10487642;27;84984;-56
2022/05/19 19:56:01;;;;;;;;;;;19.30;99.90;;;;;;10328648;28;84190;-56
2022/05/19 20:01:02;;;;;;;;;;;19.30;99.90;;;;;;10455439;27;84148;-54
2022/05/19 20:06:02;;;;;;;;;;;19.20;99.90;;;;;;10495872;27;83353;-53
2022/05/19 20:11:03;;;;;;;;;;;19.20;99.90;;;;;;10478982;27;86416;-53
2022/05/19 20:16:04;;;;;;;;;;;19.10;99.90;;;;;;10505928;27;85057;-54
2022/05/19 20:21:05;;;;;;;;;;;19.10;99.90;;;;;;10480486;27;83459;-54
2022/05/19 20:26:06;;;;;;;;;;;19.00;99.90;;;;;;10477117;27;83716;-52
2022/05/19 20:31:07;;;;;;;;;;;18.90;99.90;;;;;;10489192;27;84436;-55
2022/05/19 20:36:07;;;;;;;;;;;18.90;99.90;;;;;;10477267;27;83358;-55
2022/05/19 20:41:08;;;;;;;;;;;18.90;99.90;;;;;;10469292;27;84144;-53
2022/05/19 20:46:13;;;;;;;;;;;18.80;99.90;;;;;;10477554;27;83693;-51
2022/05/19 20:51:13;;;;;;;;;;;18.80;99.90;;;;;;10482442;27;85194;-54
2022/05/19 20:56:14;;;;;;;;;;;19.00;99.90;;;;;;10471666;27;84100;-52
2022/05/19 21:01:15;;;;;;;;;;;19.00;99.90;;;;;;10469753;27;83511;-51
2022/05/19 21:06:16;;;;;;;;;;;18.90;99.90;;;;;;10472154;27;83455;-55
2022/05/19 21:11:16;;;;;;;;;;;18.90;99.90;;;;;;10495079;27;83333;-53
2022/05/19 21:16:17;;;;;;;;;;;18.70;99.90;;;;;;10493217;27;84204;-52
2022/05/19 21:21:18;;;;;;;;;;;18.70;99.90;;;;;;10493974;27;83287;-54
2022/05/19 21:26:19;;;;;;;;;;;18.60;99.90;;;;;;10493959;27;84086;-50
2022/05/19 21:31:19;;;;;;;;;;;18.60;99.90;;;;;;10493304;27;83903;-53
2022/05/19 21:36:20;;;;;;;;;;;18.60;99.90;;;;;;10492110;27;85492;-52
2022/05/19 21:41:20;;;;;;;;;;;18.70;99.90;;;;;;10493945;27;83226;-53
2022/05/19 21:46:21;;;;;;;;;;;18.60;99.90;;;;;;10475738;27;84885;-51
2022/05/19 21:56:41;;;;;;;;;;;18.40;99.90;;;;;;10493110;27;84128;-51
2022/05/19 22:01:42;;;;;;;;;;;18.40;99.90;;;;;;10488959;27;84186;-50
2022/05/19 22:12:02;;;;;;;;;;;18.20;99.90;;;;;;10499593;27;84112;-55
2022/05/19 22:17:02;;;;;;;;;;;18.20;99.90;;;;;;10498431;27;85409;-53
2022/05/19 22:22:03;;;;;;;;;;;18.10;99.90;;;;;;10495804;27;84077;-51
2022/05/19 22:27:04;;;;;;;;;;;17.90;99.90;;;;;;10495396;27;83697;-53
2022/05/19 22:32:06;;;;;;;;;;;17.70;99.90;;;;;;10493201;27;84052;-54
2022/05/19 22:37:07;;;;;;;;;;;17.60;99.90;;;;;;10492434;27;84071;-53
2022/05/19 22:42:10;;;;;;;;;;;17.40;99.90;;;;;;10513817;22;83816;-47
2022/05/19 22:52:30;;;;;;;;;;;17.10;99.90;;;;;;10566703;27;84039;-49
2022/05/19 22:57:30;;;;;;;;;;;17.00;99.90;;;;;;10532556;27;84104;-48
2022/05/19 23:02:31;;;;;;;;;;;16.80;99.90;;;;;;10534918;27;84199;-48
2022/05/19 23:07:31;;;;;;;;;;;16.70;99.90;;;;;;10545101;27;84151;-48
2022/05/19 23:12:32;;;;;;;;;;;16.60;99.90;;;;;;10534031;27;83940;-46
2022/05/19 23:17:33;;;;;;;;;;;16.50;99.90;;;;;;10538609;27;85264;-47
2022/05/19 23:22:34;;;;;;;;;;;16.30;99.90;;;;;;10535933;27;83869;-48
2022/05/19 23:27:34;;;;;;;;;;;16.20;99.90;;;;;;10533886;27;83746;-48
2022/05/19 23:37:54;;;;;;;;;;;16.10;99.90;;;;;;10535699;27;83696;-48
2022/05/19 23:42:54;;;;;;;;;;;16.00;99.90;;;;;;10541425;27;83875;-50
2022/05/19 23:47:55;;;;;;;;;;;15.90;99.90;;;;;;10541342;27;83930;-46
2022/05/19 23:52:56;;;;;;;;;;;15.90;99.90;;;;;;10543492;27;84123;-48
2022/05/19 23:57:57;;;;;;;;;;;15.80;99.90;;;;;;10543601;27;83686;-48
